Time;durP1;ratioP1;P1;durP2;ratioP2;P2;SDS_P1;SDS_P2;PMS_P1;PMS_P2;Temp;Humidity;BMP_temperature;BMP_pressure;BME280_temperature;BME280_humidity;BME280_pressure;Samples;Min_cycle;Max_cycle;Signal;HPM_P1;HPM_P2
2024/02/10 05:00:46;;;;;;;11.48;6.80;;;5.30;99.90;;;;;;5761747;23;20299;-71
2024/02/10 05:03:13;;;;;;;16.73;9.27;;;5.30;99.90;;;;;;4967679;28;20256;-70
2024/02/10 05:05:40;;;;;;;19.00;8.77;;;5.30;99.90;;;;;;4970731;28;20217;-71
2024/02/10 05:08:12;;;;;;;16.20;8.35;;;5.30;99.90;;;;;;4969030;28;20217;-71
2024/02/10 05:10:40;;;;;;;13.45;8.38;;;5.30;99.90;;;;;;4971074;28;20699;-72
2024/02/10 05:13:07;;;;;;;20.90;9.93;;;5.30;99.90;;;;;;4971930;28;20212;-71
2024/02/10 05:15:34;;;;;;;19.90;10.35;;;5.30;99.90;;;;;;4971438;28;20241;-71
2024/02/10 05:18:05;;;;;;;15.93;7.68;;;5.40;99.90;;;;;;4969281;28;20214;-71
2024/02/10 05:20:31;;;;;;;14.32;8.23;;;5.40;99.90;;;;;;4971024;28;20865;-71
2024/02/10 05:22:58;;;;;;;10.13;7.22;;;5.40;99.90;;;;;;4969295;28;20232;-71
2024/02/10 05:25:27;;;;;;;18.70;7.70;;;5.40;99.90;;;;;;4965182;28;20214;-71
2024/02/10 05:28:01;;;;;;;21.20;9.95;;;5.40;99.90;;;;;;4970133;28;20234;-70
2024/02/10 05:30:28;;;;;;;15.57;8.73;;;5.40;99.90;;;;;;4969588;28;20231;-71
2024/02/10 05:32:56;;;;;;;11.25;7.85;;;5.40;99.90;;;;;;4970203;28;20217;-71
2024/02/10 05:35:26;;;;;;;12.30;6.50;;;5.40;99.90;;;;;;4969139;28;20209;-70
2024/02/10 05:37:54;;;;;;;9.98;7.18;;;5.40;99.90;;;;;;4969504;28;20237;-70
2024/02/10 05:40:22;;;;;;;11.55;8.13;;;5.40;99.90;;;;;;4969443;28;20217;-71
2024/02/10 05:42:50;;;;;;;11.13;7.15;;;5.40;99.90;;;;;;4970396;28;20706;-70
2024/02/10 05:45:18;;;;;;;11.55;8.43;;;5.40;99.90;;;;;;4969818;28;20205;-70
2024/02/10 05:47:45;;;;;;;12.20;8.10;;;5.40;99.90;;;;;;4969323;28;20206;-70
2024/02/10 05:50:16;;;;;;;13.60;8.02;;;5.40;99.90;;;;;;4970706;28;20206;-70
2024/02/10 05:52:44;;;;;;;14.32;8.45;;;5.50;99.90;;;;;;4970494;28;20210;-69
2024/02/10 05:55:13;;;;;;;11.48;5.85;;;5.50;99.90;;;;;;4962311;28;20216;-70
2024/02/10 05:57:40;;;;;;;20.75;9.18;;;5.50;99.90;;;;;;4965483;28;20259;-70
2024/02/10 06:00:10;;;;;;;14.27;7.65;;;5.50;99.90;;;;;;4970483;28;20207;-70
2024/02/10 06:02:41;;;;;;;15.23;9.10;;;5.50;99.90;;;;;;4969752;28;20216;-71
2024/02/10 06:05:10;;;;;;;12.18;6.80;;;5.50;99.90;;;;;;4969900;28;20287;-70
2024/02/10 06:07:37;;;;;;;12.45;7.32;;;5.50;99.90;;;;;;4969925;28;20206;-70
2024/02/10 06:10:09;;;;;;;13.50;7.88;;;5.50;99.90;;;;;;4968855;28;20211;-70
2024/02/10 06:12:37;;;;;;;20.73;9.23;;;5.50;99.90;;;;;;4973527;28;20214;-70
2024/02/10 06:15:06;;;;;;;14.23;7.80;;;5.50;99.90;;;;;;4973988;28;20215;-70
2024/02/10 06:17:34;;;;;;;15.90;8.32;;;5.50;99.90;;;;;;4970052;28;20230;-70
2024/02/10 06:20:02;;;;;;;21.20;9.15;;;5.50;99.90;;;;;;4973573;28;20212;-69
2024/02/10 06:22:29;;;;;;;7.40;6.10;;;5.50;99.90;;;;;;4968882;28;20832;-70
2024/02/10 06:24:57;;;;;;;13.68;7.15;;;5.50;99.90;;;;;;4971975;28;20217;-70
2024/02/10 06:27:25;;;;;;;13.10;7.07;;;5.60;99.90;;;;;;4973687;28;20300;-70
2024/02/10 06:29:54;;;;;;;10.93;6.97;;;5.50;99.90;;;;;;4968460;28;20422;-70
2024/02/10 06:32:21;;;;;;;13.45;7.75;;;5.60;99.90;;;;;;4972622;28;20316;-67
2024/02/10 06:34:51;;;;;;;13.25;7.40;;;5.60;99.90;;;;;;4968358;28;20257;-69
2024/02/10 06:37:18;;;;;;;14.77;7.18;;;5.60;99.90;;;;;;4972043;28;20348;-69
2024/02/10 06:39:45;;;;;;;11.10;8.63;;;5.60;99.90;;;;;;4973107;28;20211;-69
2024/02/10 06:42:13;;;;;;;18.48;7.57;;;5.60;99.90;;;;;;4969751;28;20225;-68
2024/02/10 06:44:42;;;;;;;18.63;9.55;;;5.60;99.90;;;;;;4970645;28;20276;-69
2024/02/10 06:47:09;;;;;;;9.80;6.43;;;5.60;99.90;;;;;;4972245;28;20201;-69
2024/02/10 06:49:37;;;;;;;10.85;6.40;;;5.60;99.90;;;;;;4969572;28;20234;-69
2024/02/10 06:52:04;;;;;;;16.55;9.90;;;5.60;99.90;;;;;;4971364;28;20268;-70
2024/02/10 06:54:31;;;;;;;15.10;8.15;;;5.70;99.90;;;;;;4972224;28;20220;-69
2024/02/10 06:57:00;;;;;;;10.98;7.95;;;5.60;99.90;;;;;;4972053;28;20326;-70
2024/02/10 06:59:27;;;;;;;13.45;8.40;;;5.70;99.90;;;;;;4972915;28;20233;-68
2024/02/10 07:01:55;;;;;;;9.38;7.15;;;5.70;99.90;;;;;;4969357;28;20537;-69
2024/02/10 07:04:23;;;;;;;13.77;7.50;;;5.70;99.90;;;;;;4969921;28;20210;-69
2024/02/10 07:06:53;;;;;;;13.45;7.82;;;5.70;99.90;;;;;;4969302;28;20265;-69
2024/02/10 07:09:21;;;;;;;16.58;8.55;;;5.70;99.90;;;;;;4972346;28;20217;-69
2024/02/10 07:11:49;;;;;;;9.95;7.68;;;5.70;99.90;;;;;;4971014;28;20667;-69
2024/02/10 07:14:17;;;;;;;12.82;6.95;;;5.70;99.90;;;;;;4971384;28;20261;-69
2024/02/10 07:16:43;;;;;;;11.98;8.32;;;5.70;99.90;;;;;;4968222;28;20298;-69
2024/02/10 07:19:12;;;;;;;11.88;7.30;;;5.70;99.90;;;;;;4963088;28;20222;-69
2024/02/10 07:21:38;;;;;;;12.20;7.15;;;5.70;99.90;;;;;;4970960;28;20311;-70
2024/02/10 07:24:07;;;;;;;13.57;7.15;;;5.70;99.90;;;;;;4970775;28;20227;-69
2024/02/10 07:26:34;;;;;;;12.60;7.78;;;5.70;99.90;;;;;;4971158;28;20202;-70
2024/02/10 07:29:02;;;;;;;12.93;6.80;;;5.80;99.90;;;;;;4970631;28;20291;-71
2024/02/10 07:31:28;;;;;;;13.68;7.45;;;5.80;99.90;;;;;;4970930;28;20226;-71
2024/02/10 07:33:58;;;;;;;17.52;7.70;;;5.80;99.90;;;;;;4971304;28;20207;-69
2024/02/10 07:36:34;;;;;;;9.23;7.68;;;5.80;99.90;;;;;;4968475;28;20236;-71
2024/02/10 07:39:01;;;;;;;12.18;7.30;;;5.80;99.90;;;;;;4968122;28;20309;-68
2024/02/10 07:41:28;;;;;;;17.02;7.43;;;5.80;99.90;;;;;;4970169;28;20234;-68
2024/02/10 07:43:54;;;;;;;15.30;8.25;;;5.90;99.90;;;;;;4971192;28;20216;-69
2024/02/10 07:46:21;;;;;;;12.20;6.95;;;5.90;99.90;;;;;;4972651;28;20220;-69
2024/02/10 07:48:48;;;;;;;22.40;10.13;;;5.90;99.90;;;;;;4971392;28;20223;-69
2024/02/10 07:51:16;;;;;;;12.65;7.57;;;6.00;99.90;;;;;;4961550;28;20226;-69
2024/02/10 07:53:44;;;;;;;16.50;9.10;;;6.00;99.90;;;;;;4966384;28;20211;-68
2024/02/10 07:56:12;;;;;;;13.95;8.68;;;6.00;99.90;;;;;;4969688;28;20210;-69
2024/02/10 07:58:39;;;;;;;16.95;10.27;;;6.00;99.90;;;;;;4971061;28;20206;-70
2024/02/10 08:01:07;;;;;;;18.00;9.07;;;6.00;99.90;;;;;;4969042;28;20309;-69
2024/02/10 08:03:35;;;;;;;13.27;9.95;;;6.10;99.90;;;;;;4969893;28;20683;-71
2024/02/10 08:06:01;;;;;;;16.48;7.32;;;6.10;99.90;;;;;;4964962;28;20583;-70
2024/02/10 08:08:28;;;;;;;15.85;7.60;;;6.20;99.90;;;;;;4970007;28;20212;-69
2024/02/10 08:10:56;;;;;;;18.77;9.80;;;6.20;99.90;;;;;;4967830;28;20231;-69
2024/02/10 08:13:27;;;;;;;15.48;9.73;;;6.20;99.90;;;;;;4971388;28;20212;-71
2024/02/10 08:15:54;;;;;;;10.57;8.15;;;6.20;99.90;;;;;;4969669;28;20238;-70
2024/02/10 08:18:21;;;;;;;12.95;7.90;;;6.20;99.90;;;;;;4966124;28;20233;-69
2024/02/10 08:20:48;;;;;;;17.52;10.40;;;6.20;99.90;;;;;;4969182;28;20763;-71
2024/02/10 08:23:16;;;;;;;10.40;7.00;;;6.20;99.90;;;;;;4971314;28;20209;-70
2024/02/10 08:25:44;;;;;;;11.70;8.15;;;6.30;99.90;;;;;;4969463;28;20481;-70
2024/02/10 08:28:14;;;;;;;13.77;7.00;;;6.30;99.90;;;;;;4970318;28;20214;-69
2024/02/10 08:30:41;;;;;;;16.13;9.93;;;6.30;99.90;;;;;;4970686;28;20236;-69
2024/02/10 08:33:08;;;;;;;21.15;9.20;;;6.30;99.90;;;;;;4970870;28;20222;-68
2024/02/10 08:35:36;;;;;;;11.15;6.65;;;6.30;99.90;;;;;;4971033;28;20638;-69
2024/02/10 08:38:03;;;;;;;15.27;9.32;;;6.30;99.90;;;;;;4969138;28;20439;-69
2024/02/10 08:40:30;;;;;;;15.85;8.18;;;6.30;99.90;;;;;;4970040;28;20241;-69
2024/02/10 08:42:59;;;;;;;14.23;7.85;;;6.30;99.90;;;;;;4968823;28;20207;-70
2024/02/10 08:45:28;;;;;;;10.98;7.80;;;6.30;99.90;;;;;;4969383;28;20311;-69
2024/02/10 08:47:54;;;;;;;13.63;7.75;;;6.40;99.90;;;;;;4970147;28;20223;-69
2024/02/10 08:50:22;;;;;;;15.50;8.15;;;6.40;99.90;;;;;;4964651;28;20208;-68
2024/02/10 08:52:51;;;;;;;15.88;8.27;;;6.40;99.90;;;;;;4968958;28;20569;-70
2024/02/10 08:55:18;;;;;;;20.42;8.93;;;6.40;99.90;;;;;;4968354;28;20270;-71
2024/02/10 08:57:46;;;;;;;15.88;7.20;;;6.40;99.90;;;;;;4967475;28;20219;-68
2024/02/10 09:00:15;;;;;;;13.55;8.63;;;6.50;99.90;;;;;;4969367;28;20222;-70
2024/02/10 09:02:45;;;;;;;13.05;7.35;;;6.50;99.90;;;;;;4970307;28;20650;-69
2024/02/10 09:05:12;;;;;;;12.25;8.93;;;6.50;99.90;;;;;;4968219;28;20571;-68
2024/02/10 09:07:39;;;;;;;13.30;8.02;;;6.60;99.90;;;;;;4965899;28;20207;-71
2024/02/10 09:10:07;;;;;;;15.55;7.75;;;6.60;99.90;;;;;;4970732;28;20243;-71
2024/02/10 09:12:33;;;;;;;14.50;7.65;;;6.70;99.90;;;;;;4971502;28;20241;-69
2024/02/10 09:15:00;;;;;;;13.93;7.82;;;6.70;99.90;;;;;;4971922;28;20223;-70
2024/02/10 09:17:27;;;;;;;14.05;9.02;;;6.70;99.90;;;;;;4967497;28;20508;-69
2024/02/10 09:19:57;;;;;;;17.40;9.68;;;6.80;99.90;;;;;;4968563;28;20215;-67
2024/02/10 09:22:23;;;;;;;14.88;9.15;;;6.90;99.90;;;;;;4970391;28;20225;-69
2024/02/10 09:24:51;;;;;;;15.23;9.68;;;6.90;99.90;;;;;;4965379;28;20208;-69
2024/02/10 09:27:18;;;;;;;11.60;9.00;;;6.90;99.90;;;;;;4969301;28;20240;-68
2024/02/10 09:29:45;;;;;;;12.82;8.90;;;7.00;99.90;;;;;;4964689;28;20215;-70
2024/02/10 09:32:14;;;;;;;13.77;8.57;;;7.00;99.90;;;;;;4965835;28;20323;-70
2024/02/10 09:34:41;;;;;;;16.65;9.10;;;7.00;99.90;;;;;;4964428;28;20207;-70
2024/02/10 09:37:09;;;;;;;14.00;7.32;;;7.10;99.90;;;;;;4966657;28;20240;-70
2024/02/10 09:39:37;;;;;;;13.10;8.00;;;7.10;99.90;;;;;;4969048;28;20836;-70
2024/02/10 09:42:09;;;;;;;18.73;9.85;;;7.20;99.90;;;;;;4969608;28;20227;-70
2024/02/10 09:44:37;;;;;;;14.07;8.60;;;7.20;99.90;;;;;;4969267;28;20216;-70
2024/02/10 09:47:07;;;;;;;15.57;8.20;;;7.30;99.90;;;;;;4969814;28;20216;-71
2024/02/10 09:49:34;;;;;;;14.10;8.43;;;7.40;99.90;;;;;;4968506;28;20833;-70
2024/02/10 09:52:01;;;;;;;18.38;9.65;;;7.40;99.90;;;;;;4970494;28;20643;-69
2024/02/10 09:54:29;;;;;;;15.80;9.57;;;7.50;99.90;;;;;;4974223;28;20212;-70
2024/02/10 09:56:57;;;;;;;16.73;8.73;;;7.50;99.90;;;;;;4969602;28;20216;-70
2024/02/10 09:59:24;;;;;;;12.85;8.48;;;7.60;99.90;;;;;;4969080;28;20204;-69
2024/02/10 10:01:51;;;;;;;22.48;10.25;;;7.70;99.90;;;;;;4963064;28;20259;-69
2024/02/10 10:04:21;;;;;;;14.32;8.70;;;7.80;99.90;;;;;;4969799;28;20216;-69
2024/02/10 10:06:48;;;;;;;13.25;7.85;;;7.90;99.90;;;;;;4970989;28;20224;-69
2024/02/10 10:09:18;;;;;;;17.83;8.98;;;8.00;99.90;;;;;;4966558;28;20258;-70
2024/02/10 10:11:46;;;;;;;13.00;9.38;;;8.10;99.90;;;;;;4971187;28;22178;-69
2024/02/10 10:14:14;;;;;;;10.48;7.30;;;8.20;99.90;;;;;;4972658;28;20654;-70
2024/02/10 10:16:41;;;;;;;12.40;8.57;;;8.20;99.90;;;;;;4969748;28;20209;-70
2024/02/10 10:19:08;;;;;;;15.07;7.20;;;8.30;99.90;;;;;;4970325;28;20310;-70
2024/02/10 10:21:37;;;;;;;13.63;7.75;;;8.30;99.90;;;;;;4972690;28;20220;-69
2024/02/10 10:24:04;;;;;;;8.60;5.25;;;8.30;99.90;;;;;;4972002;28;20680;-70
2024/02/10 10:26:31;;;;;;;15.90;6.60;;;8.40;99.90;;;;;;4967814;28;20209;-70
2024/02/10 10:29:00;;;;;;;7.63;5.35;;;8.50;99.90;;;;;;4969648;28;20306;-70
2024/02/10 10:31:29;;;;;;;9.75;6.68;;;8.50;99.90;;;;;;4965705;28;20224;-68
2024/02/10 10:33:56;;;;;;;9.05;7.05;;;8.60;99.90;;;;;;4972731;28;20209;-69
2024/02/10 10:36:24;;;;;;;15.00;7.45;;;8.60;99.90;;;;;;4972223;28;20209;-69
2024/02/10 10:38:53;;;;;;;9.30;6.82;;;8.70;99.90;;;;;;4969917;28;20845;-69
2024/02/10 10:41:22;;;;;;;13.15;6.10;;;8.80;99.90;;;;;;4968472;28;20232;-69
2024/02/10 10:43:51;;;;;;;6.90;5.47;;;8.90;99.90;;;;;;4967424;28;20308;-70
2024/02/10 10:46:21;;;;;;;9.80;6.07;;;8.90;99.90;;;;;;4971730;28;20220;-70
2024/02/10 10:48:48;;;;;;;4.68;4.20;;;9.00;99.90;;;;;;4967668;28;20220;-70
2024/02/10 10:51:18;;;;;;;11.40;6.80;;;9.00;99.90;;;;;;4973358;28;20291;-71
2024/02/10 10:53:49;;;;;;;7.80;5.05;;;9.10;99.90;;;;;;4968509;28;20221;-68
2024/02/10 10:56:22;;;;;;;9.18;6.20;;;9.20;99.90;;;;;;4970055;28;20343;-70
2024/02/10 10:58:57;;;;;;;9.10;4.35;;;9.20;99.90;;;;;;4972612;28;20223;-71
2024/02/10 11:01:27;;;;;;;7.15;5.13;;;9.30;99.90;;;;;;4972018;28;20240;-68
2024/02/10 11:03:55;;;;;;;8.52;4.80;;;9.30;99.90;;;;;;4973676;28;20672;-69
2024/02/10 11:06:22;;;;;;;6.63;4.32;;;9.30;99.90;;;;;;4973477;28;20232;-70
2024/02/10 11:08:54;;;;;;;5.00;4.55;;;9.40;99.90;;;;;;4969164;28;20229;-70
2024/02/10 11:11:20;;;;;;;7.38;5.38;;;9.40;99.90;;;;;;4968727;28;20230;-71
2024/02/10 11:13:47;;;;;;;9.57;6.57;;;9.50;99.90;;;;;;4967438;28;20217;-69
2024/02/10 11:16:14;;;;;;;6.40;5.15;;;9.50;99.90;;;;;;4974765;28;20206;-70
2024/02/10 11:18:44;;;;;;;11.65;6.55;;;9.60;99.90;;;;;;4960663;28;20245;-68
2024/02/10 11:21:18;;;;;;;8.15;6.45;;;9.60;99.90;;;;;;4965148;28;20682;-71
2024/02/10 11:23:56;;;;;;;10.68;7.05;;;9.70;99.90;;;;;;4970565;28;20270;-69
2024/02/10 11:26:26;;;;;;;10.75;6.40;;;9.70;99.90;;;;;;4968522;28;20633;-71
2024/02/10 11:28:59;;;;;;;12.15;7.25;;;9.80;99.90;;;;;;4968845;28;20213;-70
2024/02/10 11:31:28;;;;;;;10.30;6.75;;;9.80;99.90;;;;;;4973489;28;20235;-71
2024/02/10 11:34:01;;;;;;;9.07;6.93;;;9.80;99.90;;;;;;4970881;28;20264;-70
2024/02/10 11:36:28;;;;;;;13.75;7.88;;;9.80;99.90;;;;;;4972302;28;20210;-70
2024/02/10 11:38:55;;;;;;;10.17;6.90;;;9.80;99.90;;;;;;4969919;28;20599;-70
2024/02/10 11:41:22;;;;;;;13.80;6.68;;;9.90;99.90;;;;;;4970980;28;20514;-71
2024/02/10 11:43:50;;;;;;;9.85;5.97;;;10.00;99.90;;;;;;4968741;28;20688;-70
2024/02/10 11:46:17;;;;;;;6.85;5.90;;;10.10;99.90;;;;;;4972663;28;20572;-71
2024/02/10 11:48:43;;;;;;;8.40;6.88;;;9.90;99.90;;;;;;4972021;28;20203;-69
2024/02/10 11:51:11;;;;;;;14.90;7.45;;;9.90;99.90;;;;;;4972137;28;20229;-71
2024/02/10 11:53:40;;;;;;;12.53;6.17;;;9.90;99.90;;;;;;4970218;28;20218;-70
2024/02/10 11:56:08;;;;;;;12.20;7.10;;;10.00;99.90;;;;;;4969564;28;20477;-70
2024/02/10 11:58:35;;;;;;;10.45;7.57;;;10.00;99.90;;;;;;4964524;28;20231;-70
2024/02/10 12:01:02;;;;;;;17.90;8.40;;;10.00;99.90;;;;;;4969530;28;20264;-70
2024/02/10 12:03:31;;;;;;;15.57;8.98;;;9.90;99.90;;;;;;4972186;28;20469;-70
2024/02/10 12:06:02;;;;;;;13.50;8.55;;;9.90;99.90;;;;;;4967437;28;20201;-70
2024/02/10 12:08:30;;;;;;;12.90;7.13;;;9.90;99.90;;;;;;4969106;28;20627;-69
2024/02/10 12:10:57;;;;;;;13.05;7.95;;;9.80;99.90;;;;;;4965080;28;20246;-69
2024/02/10 12:13:25;;;;;;;15.77;7.78;;;9.80;99.90;;;;;;4970217;28;20662;-70
2024/02/10 12:15:58;;;;;;;18.30;9.38;;;9.80;99.90;;;;;;4970580;28;20581;-70
2024/02/10 12:18:25;;;;;;;19.40;8.40;;;9.80;99.90;;;;;;4966651;28;20302;-71
2024/02/10 12:20:52;;;;;;;16.77;8.57;;;9.80;99.90;;;;;;4971355;28;20247;-69
2024/02/10 12:23:18;;;;;;;13.35;7.88;;;9.90;99.90;;;;;;4970607;28;20265;-71
2024/02/10 12:25:46;;;;;;;15.23;9.30;;;9.80;99.90;;;;;;4970410;28;20680;-68
2024/02/10 12:28:13;;;;;;;13.77;8.23;;;9.90;99.90;;;;;;4969789;28;20215;-70
2024/02/10 12:30:40;;;;;;;14.90;9.90;;;9.90;99.90;;;;;;4969583;28;20226;-68
2024/02/10 12:33:06;;;;;;;14.48;9.50;;;9.90;99.90;;;;;;4967653;28;20471;-69
2024/02/10 12:35:36;;;;;;;15.00;8.75;;;9.90;99.90;;;;;;4969484;28;20211;-67
2024/02/10 12:38:03;;;;;;;14.95;8.20;;;9.60;99.90;;;;;;4967244;28;20282;-70
2024/02/10 12:40:29;;;;;;;13.02;8.85;;;9.90;99.90;;;;;;4969410;28;20206;-67
2024/02/10 12:42:58;;;;;;;20.13;9.63;;;9.90;99.90;;;;;;4967772;28;20267;-69
2024/02/10 12:45:24;;;;;;;21.70;11.27;;;9.80;99.90;;;;;;4970207;28;20258;-69
2024/02/10 12:47:52;;;;;;;19.33;10.82;;;9.80;99.90;;;;;;4967803;28;20203;-69
2024/02/10 12:50:20;;;;;;;19.67;11.15;;;9.80;99.90;;;;;;4970109;28;20552;-70
2024/02/10 12:52:47;;;;;;;21.15;10.77;;;9.80;99.90;;;;;;4970239;28;20207;-70
2024/02/10 12:55:14;;;;;;;18.33;9.93;;;9.80;99.90;;;;;;4968072;28;20217;-70
2024/02/10 12:57:41;;;;;;;14.05;9.25;;;9.80;99.90;;;;;;4966105;28;20281;-70
2024/02/10 13:00:20;;;;;;;12.77;8.32;;;9.70;99.90;;;;;;4971466;28;20593;-70
2024/02/10 13:02:48;;;;;;;15.15;8.10;;;9.70;99.90;;;;;;4967663;28;25111;-69
2024/02/10 13:05:17;;;;;;;15.40;9.35;;;9.70;99.90;;;;;;4969824;28;20208;-70
2024/02/10 13:07:44;;;;;;;16.75;9.85;;;9.70;99.90;;;;;;4970891;28;20236;-69
2024/02/10 13:10:19;;;;;;;19.15;9.40;;;9.70;99.90;;;;;;4969449;28;20287;-70
2024/02/10 13:12:50;;;;;;;20.08;8.55;;;9.70;99.90;;;;;;4969943;28;20216;-69
2024/02/10 13:15:19;;;;;;;16.05;9.40;;;9.60;99.90;;;;;;4971583;28;20213;-69
2024/02/10 13:17:47;;;;;;;12.77;7.45;;;9.60;99.90;;;;;;4968984;28;20212;-68
2024/02/10 13:20:17;;;;;;;15.55;9.40;;;9.60;99.90;;;;;;4972585;28;20574;-70
2024/02/10 13:22:44;;;;;;;13.00;8.23;;;9.60;99.90;;;;;;4968436;28;20217;-69
2024/02/10 13:25:11;;;;;;;14.70;9.40;;;9.60;99.90;;;;;;4968678;28;20210;-69
2024/02/10 13:27:38;;;;;;;13.02;8.02;;;9.60;99.90;;;;;;4965710;28;20213;-70
2024/02/10 13:30:08;;;;;;;15.32;7.82;;;9.60;99.90;;;;;;4967926;28;20200;-68
2024/02/10 13:32:37;;;;;;;14.63;7.78;;;9.60;99.90;;;;;;4965239;28;20324;-70
2024/02/10 13:35:04;;;;;;;11.57;8.13;;;9.60;99.90;;;;;;4969434;28;20586;-69
2024/02/10 14:04:52;;;;;;;7.15;5.30;;;9.60;99.90;;;;;;4956397;28;20326;-70
2024/02/10 14:08:00;;;;;;;8.68;5.70;;;9.50;99.90;;;;;;4967100;28;20288;-68
2024/02/10 14:10:17;;;;;;;7.70;5.63;;;9.50;99.90;;;;;;4968834;28;20296;-68
2024/02/10 14:12:45;;;;;;;7.35;4.80;;;9.50;99.90;;;;;;4971181;28;20207;-70
2024/02/10 14:15:17;;;;;;;10.43;7.00;;;9.50;99.90;;;;;;4969154;28;20205;-70
2024/02/10 14:17:44;;;;;;;10.25;6.57;;;9.60;99.90;;;;;;4967877;28;20201;-68
2024/02/10 14:20:18;;;;;;;10.60;5.28;;;9.60;99.90;;;;;;4964658;28;20567;-69
2024/02/10 14:22:47;;;;;;;8.57;5.10;;;9.50;99.90;;;;;;4967891;28;20288;-69
2024/02/10 14:25:23;;;;;;;12.13;7.63;;;9.60;99.90;;;;;;4969201;28;20277;-68
2024/02/10 14:27:54;;;;;;;13.30;7.35;;;9.60;99.90;;;;;;4966874;28;20213;-69
2024/02/10 14:30:31;;;;;;;10.15;6.63;;;9.60;99.90;;;;;;4972688;28;20201;-70
2024/02/10 14:32:59;;;;;;;10.27;6.60;;;9.60;99.90;;;;;;4973301;28;20209;-68
2024/02/10 14:35:44;;;;;;;9.85;6.25;;;9.60;99.90;;;;;;4971540;28;20252;-69
2024/02/10 14:38:23;;;;;;;11.68;6.30;;;9.50;99.90;;;;;;4969901;28;20283;-70
2024/02/10 14:40:51;;;;;;;11.77;7.72;;;9.50;99.90;;;;;;4972362;28;20229;-69
2024/02/10 14:43:19;;;;;;;10.82;6.82;;;9.50;99.90;;;;;;4971137;28;20235;-69
2024/02/10 14:45:46;;;;;;;16.20;8.65;;;9.40;99.90;;;;;;4973866;28;20208;-69
2024/02/10 14:48:15;;;;;;;33.28;20.90;;;9.40;99.90;;;;;;4969338;28;20215;-69
2024/02/10 14:50:43;;;;;;;9.50;7.22;;;9.30;99.90;;;;;;4971475;28;20282;-68
2024/02/10 14:53:11;;;;;;;13.93;8.00;;;9.30;99.90;;;;;;4972970;28;20292;-69
2024/02/10 14:55:38;;;;;;;18.13;9.40;;;9.30;99.90;;;;;;4972029;28;20213;-71
2024/02/10 14:58:07;;;;;;;13.88;9.07;;;9.20;99.90;;;;;;4971216;28;20219;-68
2024/02/10 15:00:35;;;;;;;19.80;9.02;;;9.20;99.90;;;;;;4972674;28;20315;-68
2024/02/10 15:03:05;;;;;;;8.73;7.55;;;9.20;99.90;;;;;;4969051;28;20201;-69
2024/02/10 15:05:32;;;;;;;14.13;8.75;;;9.20;99.90;;;;;;4970971;28;20220;-70
2024/02/10 15:08:00;;;;;;;10.55;6.30;;;9.20;99.90;;;;;;4968565;28;20315;-67
2024/02/10 15:10:27;;;;;;;14.95;7.72;;;9.30;99.90;;;;;;4968326;28;20402;-69
2024/02/10 15:12:57;;;;;;;10.35;7.63;;;9.20;99.90;;;;;;4971941;28;20390;-68
2024/02/10 15:15:27;;;;;;;12.95;8.20;;;9.20;99.90;;;;;;4974210;28;20209;-69
2024/02/10 15:17:54;;;;;;;12.88;6.72;;;9.20;99.90;;;;;;4962154;28;20216;-69
2024/02/10 15:20:23;;;;;;;11.48;5.13;;;9.20;99.90;;;;;;4968478;28;20233;-69
2024/02/10 15:22:50;;;;;;;11.15;7.80;;;9.20;99.90;;;;;;4971209;28;20699;-68
2024/02/10 15:25:18;;;;;;;7.70;6.22;;;9.20;99.90;;;;;;4970720;28;20215;-69
2024/02/10 15:27:45;;;;;;;8.25;6.13;;;9.20;99.90;;;;;;4970963;28;20208;-68
2024/02/10 15:30:13;;;;;;;11.98;6.18;;;9.20;99.90;;;;;;4970394;28;20213;-68
2024/02/10 15:32:40;;;;;;;12.57;7.38;;;9.10;99.90;;;;;;4968380;28;20244;-69
2024/02/10 15:35:07;;;;;;;6.10;5.47;;;9.10;99.90;;;;;;4973156;28;20233;-69
2024/02/10 15:37:34;;;;;;;18.67;6.18;;;9.10;99.90;;;;;;4971570;28;20205;-69
2024/02/10 15:40:01;;;;;;;9.77;6.18;;;9.10;99.90;;;;;;4969173;28;20239;-69
2024/02/10 15:42:29;;;;;;;7.57;6.05;;;9.10;99.90;;;;;;4971908;28;20236;-66
2024/02/10 15:44:56;;;;;;;11.27;5.32;;;9.00;99.90;;;;;;4971684;28;20201;-69
2024/02/10 15:47:22;;;;;;;9.05;6.38;;;8.90;99.90;;;;;;4968636;28;20215;-71
2024/02/10 15:49:55;;;;;;;8.48;5.75;;;8.90;99.90;;;;;;4973122;28;20196;-68
2024/02/10 15:52:23;;;;;;;8.65;5.88;;;8.90;99.90;;;;;;4968011;28;20248;-69
2024/02/10 15:54:50;;;;;;;8.75;6.05;;;8.90;99.90;;;;;;4966718;28;20268;-68
2024/02/10 15:57:17;;;;;;;8.13;6.30;;;8.80;99.90;;;;;;4972542;28;20219;-68
2024/02/10 15:59:45;;;;;;;13.75;5.70;;;8.80;99.90;;;;;;4974482;28;20221;-69
2024/02/10 16:02:17;;;;;;;6.60;4.57;;;8.80;99.90;;;;;;4972776;28;20323;-70
2024/02/10 16:04:44;;;;;;;13.10;6.95;;;8.80;99.90;;;;;;4973398;28;20224;-69
2024/02/10 16:07:11;;;;;;;7.88;5.88;;;8.70;99.90;;;;;;4971008;28;20212;-69
2024/02/10 16:09:38;;;;;;;12.60;6.68;;;8.70;99.90;;;;;;4968908;28;20204;-69
2024/02/10 16:12:05;;;;;;;11.65;6.07;;;8.60;99.90;;;;;;4969551;28;20559;-70
2024/02/10 16:14:33;;;;;;;9.68;5.43;;;8.60;99.90;;;;;;4975889;28;20231;-68
2024/02/10 16:17:01;;;;;;;10.30;7.13;;;8.60;99.90;;;;;;4976249;28;20204;-67
2024/02/10 16:19:29;;;;;;;7.65;6.18;;;8.50;99.90;;;;;;4969833;28;20229;-68
2024/02/10 16:21:56;;;;;;;13.98;6.03;;;8.50;99.90;;;;;;4976355;28;20234;-68
2024/02/10 16:24:23;;;;;;;9.05;5.65;;;8.50;99.90;;;;;;4973551;28;20207;-69
2024/02/10 16:26:50;;;;;;;7.05;6.15;;;8.50;99.90;;;;;;4964122;28;20685;-67
2024/02/10 16:29:17;;;;;;;11.13;6.05;;;8.50;99.90;;;;;;4972666;28;20200;-68
2024/02/10 16:31:50;;;;;;;9.38;5.25;;;8.50;99.90;;;;;;4970692;28;20236;-69
2024/02/10 16:34:18;;;;;;;6.53;5.60;;;8.40;99.90;;;;;;4967789;28;20219;-70
2024/02/10 16:36:45;;;;;;;10.05;7.15;;;8.40;99.90;;;;;;4964947;28;20640;-69
2024/02/10 16:39:11;;;;;;;13.90;6.57;;;8.40;99.90;;;;;;4967244;28;20278;-68
2024/02/10 16:41:38;;;;;;;6.82;5.95;;;8.30;99.90;;;;;;4963174;28;20235;-71
2024/02/10 16:44:05;;;;;;;14.43;6.28;;;8.40;99.90;;;;;;4958823;28;20209;-69
2024/02/10 16:46:33;;;;;;;9.73;6.80;;;8.30;99.90;;;;;;4969482;28;20217;-69
2024/02/10 16:49:00;;;;;;;9.20;5.88;;;8.30;99.90;;;;;;4968235;28;20205;-69
2024/02/10 16:51:31;;;;;;;7.75;4.55;;;8.30;99.90;;;;;;4970337;28;20232;-69
2024/02/10 16:54:05;;;;;;;11.93;5.65;;;8.30;99.90;;;;;;4965001;28;20576;-69
2024/02/10 16:56:35;;;;;;;7.45;4.93;;;8.20;99.90;;;;;;4969764;28;20204;-70
2024/02/10 16:59:02;;;;;;;7.80;5.90;;;8.20;99.90;;;;;;4968951;28;20206;-70
2024/02/10 17:01:30;;;;;;;6.47;5.63;;;8.20;99.90;;;;;;4972874;28;20240;-70
2024/02/10 17:03:57;;;;;;;7.95;5.80;;;;;;;;;;4970452;28;20208;-70
2024/02/10 17:06:24;;;;;;;9.55;6.10;;;8.10;99.90;;;;;;4968864;28;20639;-70
2024/02/10 17:08:52;;;;;;;12.73;6.28;;;8.10;99.90;;;;;;4971396;28;20721;-69
2024/02/10 17:11:18;;;;;;;6.72;5.50;;;8.10;99.90;;;;;;4971657;28;20228;-69
2024/02/10 17:13:48;;;;;;;11.90;7.65;;;8.10;99.90;;;;;;4972146;28;20208;-70
2024/02/10 17:16:17;;;;;;;12.30;6.95;;;8.00;99.90;;;;;;4969974;28;20208;-70
2024/02/10 17:18:44;;;;;;;9.52;6.43;;;8.00;99.90;;;;;;4972047;28;20212;-69
2024/02/10 17:21:11;;;;;;;9.35;5.95;;;7.90;99.90;;;;;;4967464;28;20228;-71
2024/02/10 17:23:38;;;;;;;8.02;6.20;;;7.90;99.90;;;;;;4973194;28;20208;-71
2024/02/10 17:26:12;;;;;;;9.70;5.90;;;7.80;99.90;;;;;;4971069;28;20208;-69
2024/02/10 17:28:38;;;;;;;7.32;6.00;;;7.80;99.90;;;;;;4967897;28;20217;-68
2024/02/10 17:31:05;;;;;;;9.52;8.52;;;7.80;99.90;;;;;;4970069;28;20268;-68
2024/02/10 17:33:31;;;;;;;8.10;7.40;;;7.80;99.90;;;;;;4971407;28;20222;-69
2024/02/10 17:35:58;;;;;;;8.00;5.35;;;7.70;99.90;;;;;;4966765;28;20222;-69
2024/02/10 17:38:25;;;;;;;6.55;5.68;;;7.70;99.90;;;;;;4966470;28;20235;-69
2024/02/10 17:40:53;;;;;;;9.00;6.13;;;7.70;99.90;;;;;;4966565;28;20251;-69
2024/02/10 17:43:23;;;;;;;5.88;5.35;;;7.70;99.90;;;;;;4965063;28;20247;-70
2024/02/10 17:45:52;;;;;;;8.02;6.55;;;7.70;99.90;;;;;;4972599;28;20211;-69
2024/02/10 17:48:22;;;;;;;6.10;5.50;;;7.70;99.90;;;;;;4969745;28;20338;-70
2024/02/10 17:50:49;;;;;;;5.95;5.20;;;7.70;99.90;;;;;;4972348;28;20707;-70
2024/02/10 17:53:20;;;;;;;4.78;4.03;;;7.60;99.90;;;;;;4967104;28;20211;-70
2024/02/10 17:55:48;;;;;;;10.10;4.80;;;7.60;99.90;;;;;;4971970;28;20216;-69
2024/02/10 17:58:18;;;;;;;6.72;4.25;;;7.60;99.90;;;;;;4969634;28;20207;-69
2024/02/10 18:00:50;;;;;;;8.85;6.32;;;7.60;99.90;;;;;;4970318;28;20257;-69
2024/02/10 18:03:18;;;;;;;8.13;5.15;;;7.60;99.90;;;;;;4967634;28;20216;-68
2024/02/10 18:05:46;;;;;;;9.90;4.88;;;7.60;99.90;;;;;;4975052;28;20284;-68
2024/02/10 18:08:13;;;;;;;7.35;5.30;;;7.60;99.90;;;;;;4971862;28;20218;-69
2024/02/10 18:10:40;;;;;;;7.70;6.20;;;7.60;99.90;;;;;;4976330;28;20744;-68
2024/02/10 18:13:06;;;;;;;7.03;5.75;;;7.50;99.90;;;;;;4972963;28;20217;-69
2024/02/10 18:15:34;;;;;;;9.10;5.50;;;7.60;99.90;;;;;;4975219;28;20218;-69
2024/02/10 18:18:02;;;;;;;9.25;6.78;;;7.60;99.90;;;;;;4974578;28;20215;-70
2024/02/10 18:20:29;;;;;;;10.80;5.82;;;7.50;99.90;;;;;;4974861;28;20233;-70
2024/02/10 18:22:56;;;;;;;8.00;6.38;;;7.50;99.90;;;;;;4974019;28;20989;-69